createdAt,value
2022-11-13T00:01:24.045Z,40.00
2022-11-13T00:06:20.855Z,33.40
2022-11-13T00:08:55.072Z,40.10
2022-11-13T00:11:23.324Z,37.20
2022-11-13T00:13:51.696Z,35.40
2022-11-13T00:16:21.944Z,37.80
2022-11-13T00:18:50.305Z,34.90
2022-11-13T00:21:23.485Z,38.90
2022-11-13T00:23:52.085Z,36.30
2022-11-13T00:26:27.448Z,27.90
2022-11-13T00:28:59.953Z,21.30
2022-11-13T00:31:29.685Z,21.60
2022-11-13T00:34:19.446Z,21.80
2022-11-13T00:36:48.195Z,26.50
2022-11-13T00:39:16.503Z,21.30
2022-11-13T00:41:44.849Z,21.80
2022-11-13T00:44:13.257Z,20.10
2022-11-13T00:46:41.706Z,23.50
2022-11-13T00:49:10.036Z,20.50
2022-11-13T00:51:38.516Z,22.70
2022-11-13T00:54:06.864Z,21.70
2022-11-13T00:56:35.220Z,16.10
2022-11-13T00:59:03.598Z,17.80
2022-11-13T01:01:32.069Z,22.10
2022-11-13T01:04:00.381Z,23.90
2022-11-13T01:06:29.061Z,21.70
2022-11-13T01:09:02.349Z,18.60
2022-11-13T01:11:31.164Z,17.60
2022-11-13T01:13:59.504Z,23.00
2022-11-13T01:16:28.576Z,21.60
2022-11-13T01:18:56.985Z,20.20
2022-11-13T01:21:27.961Z,22.90
2022-11-13T01:23:56.784Z,21.10
2022-11-13T01:26:30.747Z,20.60
2022-11-13T01:29:00.413Z,21.30
2022-11-13T01:31:30.881Z,24.50
2022-11-13T01:33:59.606Z,19.20
2022-11-13T01:36:29.676Z,16.60
2022-11-13T01:38:58.150Z,17.90
2022-11-13T01:41:32.995Z,19.50
2022-11-13T01:44:02.001Z,19.50
2022-11-13T01:46:38.843Z,24.70
2022-11-13T01:49:27.264Z,20.90
2022-11-13T01:52:10.533Z,21.70
2022-11-13T01:54:53.853Z,18.10
2022-11-13T01:57:22.917Z,22.80
2022-11-13T01:59:58.495Z,21.60
2022-11-13T02:02:26.930Z,20.80
2022-11-13T02:04:55.305Z,20.30
2022-11-13T02:07:24.444Z,23.00
2022-11-13T02:09:58.119Z,21.00
2022-11-13T02:12:35.658Z,27.20
2022-11-13T02:15:07.365Z,22.10
2022-11-13T02:17:50.236Z,25.60
2022-11-13T02:21:05.975Z,20.60
2022-11-13T02:23:44.902Z,20.70
2022-11-13T02:26:13.493Z,22.60
2022-11-13T02:28:41.833Z,20.40
2022-11-13T02:31:13.686Z,21.80
2022-11-13T02:33:42.155Z,22.30
2022-11-13T02:36:12.216Z,27.00
2022-11-13T02:38:42.097Z,22.50
2022-11-13T02:41:10.485Z,23.60
2022-11-13T02:43:38.852Z,24.90
2022-11-13T02:46:07.180Z,22.60
2022-11-13T02:48:35.506Z,23.10
2022-11-13T02:51:04.435Z,27.80
2022-11-13T02:53:33.029Z,22.50
2022-11-13T02:56:01.404Z,27.40
2022-11-13T02:58:30.300Z,24.90
2022-11-13T03:01:03.548Z,25.20
2022-11-13T03:03:56.460Z,25.50
2022-11-13T03:06:20.198Z,22.80
2022-11-13T03:08:48.526Z,28.50
2022-11-13T03:11:16.777Z,23.00
2022-11-13T03:13:45.122Z,25.90
2022-11-13T03:16:16.593Z,28.10
2022-11-13T03:18:44.885Z,29.10
2022-11-13T03:21:16.026Z,32.80
2022-11-13T03:23:47.455Z,32.00
2022-11-13T03:26:17.557Z,26.50
2022-11-13T03:28:46.289Z,27.30
2022-11-13T03:31:14.722Z,31.40
2022-11-13T03:33:43.427Z,28.60
2022-11-13T03:36:11.784Z,28.40
2022-11-13T03:38:40.317Z,32.60
2022-11-13T03:41:08.634Z,33.70
2022-11-13T03:43:36.969Z,30.60
2022-11-13T03:46:05.545Z,30.60
2022-11-13T03:48:34.157Z,28.60
2022-11-13T03:51:03.089Z,26.80
2022-11-13T03:53:31.423Z,24.80
2022-11-13T03:56:00.166Z,33.60
2022-11-13T03:58:28.715Z,30.60
2022-11-13T04:00:57.370Z,29.90
2022-11-13T04:03:25.811Z,27.90
2022-11-13T04:05:54.111Z,30.20
2022-11-13T04:08:22.408Z,27.70
2022-11-13T04:10:50.713Z,27.40
2022-11-13T04:13:19.112Z,29.20
2022-11-13T04:15:47.904Z,28.80
2022-11-13T04:18:16.148Z,24.80
2022-11-13T04:20:44.475Z,30.90
2022-11-13T04:23:14.349Z,39.40
2022-11-13T04:25:42.630Z,33.80
2022-11-13T04:28:11.297Z,31.40
2022-11-13T04:30:39.589Z,26.00
2022-11-13T04:33:07.925Z,28.20
2022-11-13T04:35:36.370Z,27.30
2022-11-13T04:38:05.052Z,28.00
2022-11-13T04:40:33.683Z,28.50
2022-11-13T04:43:02.264Z,28.60
2022-11-13T04:45:30.811Z,32.00
2022-11-13T04:47:59.120Z,31.60
2022-11-13T04:50:27.571Z,27.60
2022-11-13T04:52:55.966Z,30.10
2022-11-13T04:55:24.359Z,25.50
2022-11-13T04:57:56.395Z,30.10
2022-11-13T05:00:24.778Z,27.90
2022-11-13T05:02:53.312Z,29.10
2022-11-13T05:05:21.701Z,31.70
2022-11-13T05:07:49.988Z,29.50
2022-11-13T05:10:18.374Z,30.60
2022-11-13T05:12:46.699Z,31.20
2022-11-13T05:15:15.029Z,32.90
2022-11-13T05:17:43.429Z,34.90
2022-11-13T05:20:12.122Z,31.60
2022-11-13T05:22:40.390Z,31.10
2022-11-13T05:25:09.009Z,36.40
2022-11-13T05:27:37.388Z,33.20
2022-11-13T05:30:06.687Z,38.40
2022-11-13T05:32:35.007Z,34.60
2022-11-13T05:35:03.796Z,36.70
2022-11-13T05:37:32.184Z,39.70
2022-11-13T05:40:00.478Z,42.10
2022-11-13T05:42:28.798Z,41.70
2022-11-13T05:44:57.231Z,40.00
2022-11-13T05:47:25.671Z,42.00
2022-11-13T05:49:54.118Z,41.20
2022-11-13T05:52:22.421Z,42.30
2022-11-13T05:54:50.739Z,40.90
2022-11-13T05:57:19.034Z,38.00
2022-11-13T05:59:47.309Z,41.60
2022-11-13T06:02:15.671Z,39.60
2022-11-13T06:04:43.990Z,42.20
2022-11-13T06:07:13.683Z,40.20
2022-11-13T06:09:42.034Z,39.20
2022-11-13T06:12:10.415Z,38.10
2022-11-13T06:14:38.721Z,41.20
2022-11-13T06:17:07.031Z,42.40
2022-11-13T06:19:35.386Z,40.90
2022-11-13T06:22:03.727Z,43.40
2022-11-13T06:24:32.039Z,42.30
2022-11-13T06:27:00.378Z,39.40
2022-11-13T06:29:28.734Z,41.50
2022-11-13T06:31:57.213Z,41.50
2022-11-13T06:34:25.509Z,44.90
2022-11-13T06:36:53.792Z,43.50
2022-11-13T06:39:22.130Z,41.20
2022-11-13T06:41:50.565Z,42.50
2022-11-13T06:44:18.896Z,42.90
2022-11-13T06:46:47.189Z,48.00
2022-11-13T06:49:15.490Z,39.40
2022-11-13T06:51:43.768Z,47.50
2022-11-13T06:54:12.025Z,39.80
2022-11-13T06:56:45.412Z,46.50
2022-11-13T06:59:13.669Z,45.30
2022-11-13T07:01:41.944Z,42.20
2022-11-13T07:04:13.581Z,32.60
2022-11-13T07:06:42.032Z,35.90
2022-11-13T07:09:10.413Z,36.00
2022-11-13T07:11:38.782Z,34.50
2022-11-13T07:14:11.204Z,39.20
2022-11-13T07:17:07.413Z,35.20
2022-11-13T07:19:27.999Z,35.00
2022-11-13T07:21:56.330Z,30.50
2022-11-13T07:24:24.993Z,35.70
2022-11-13T07:26:53.301Z,36.40
2022-11-13T07:29:21.582Z,39.90
2022-11-13T07:31:50.015Z,33.80
2022-11-13T07:34:18.267Z,36.70
2022-11-13T07:36:46.708Z,31.50
2022-11-13T07:39:15.024Z,30.80
2022-11-13T07:41:43.347Z,35.00
2022-11-13T07:44:21.895Z,34.60
2022-11-13T07:47:00.615Z,36.10
2022-11-13T07:49:28.901Z,32.60
2022-11-13T07:51:57.261Z,37.10
2022-11-13T07:54:25.544Z,32.30
2022-11-13T07:56:53.865Z,38.70
2022-11-13T07:59:22.200Z,40.80
2022-11-13T08:01:50.616Z,42.90
2022-11-13T08:04:19.173Z,41.60
2022-11-13T08:06:47.711Z,39.10
2022-11-13T08:09:16.017Z,40.00
2022-11-13T08:11:44.365Z,45.10
2022-11-13T08:14:12.826Z,46.30
2022-11-13T08:16:41.148Z,42.00
2022-11-13T08:19:09.915Z,47.00
2022-11-13T08:21:38.257Z,59.50
2022-11-13T08:24:06.925Z,46.70
2022-11-13T08:26:38.848Z,44.40
2022-11-13T08:29:07.231Z,45.00
2022-11-13T08:31:36.792Z,46.40
2022-11-13T08:34:05.215Z,46.70
2022-11-13T08:36:33.981Z,50.30
2022-11-13T08:39:02.412Z,44.40
2022-11-13T08:41:30.791Z,44.10
2022-11-13T08:43:59.147Z,47.90
2022-11-13T08:46:27.632Z,53.30
2022-11-13T08:48:56.158Z,50.40
2022-11-13T08:51:24.495Z,53.20
2022-11-13T08:53:52.855Z,47.30
2022-11-13T08:56:21.280Z,52.50
2022-11-13T08:58:49.645Z,55.20
2022-11-13T09:01:18.011Z,62.80
2022-11-13T09:03:51.395Z,55.00
2022-11-13T09:06:19.710Z,55.10
2022-11-13T09:08:48.026Z,61.90
2022-11-13T09:11:16.803Z,60.00
2022-11-13T09:13:50.667Z,53.60
2022-11-13T09:16:21.808Z,55.70
2022-11-13T09:18:51.926Z,55.50
2022-11-13T09:21:20.266Z,51.20
2022-11-13T09:23:48.632Z,37.50
2022-11-13T09:26:17.901Z,36.80
2022-11-13T09:28:46.298Z,34.90
2022-11-13T09:31:14.768Z,35.80
2022-11-13T09:33:43.042Z,34.60
2022-11-13T09:36:14.957Z,33.80
2022-11-13T09:38:43.367Z,36.70
2022-11-13T09:41:20.722Z,37.40
2022-11-13T09:43:59.849Z,43.40
2022-11-13T09:46:45.989Z,38.10
2022-11-13T09:52:06.532Z,32.60
2022-11-13T09:54:35.060Z,34.70
2022-11-13T09:57:20.457Z,35.40
2022-11-13T10:00:02.173Z,42.80
2022-11-13T10:03:10.781Z,37.80
2022-11-13T10:06:00.434Z,41.30
2022-11-13T10:09:00.448Z,38.00
2022-11-13T10:11:44.712Z,37.00
2022-11-13T10:14:25.217Z,41.00
2022-11-13T10:17:06.977Z,41.30
2022-11-13T10:19:59.324Z,44.50
2022-11-13T10:23:15.600Z,38.40
2022-11-13T10:25:45.159Z,41.10
2022-11-13T10:28:48.719Z,40.80
2022-11-13T10:31:12.674Z,42.80
2022-11-13T10:33:40.959Z,58.70
2022-11-13T10:36:39.945Z,46.90
2022-11-13T10:39:09.776Z,47.10
2022-11-13T10:41:53.304Z,39.70
2022-11-13T10:44:29.607Z,43.50
2022-11-13T10:48:02.107Z,43.10
2022-11-13T10:50:36.279Z,50.30
2022-11-13T10:53:17.383Z,42.90
2022-11-13T10:55:50.676Z,41.60
2022-11-13T10:58:20.270Z,42.70
2022-11-13T11:00:49.977Z,45.10
2022-11-13T11:03:22.534Z,41.70
2022-11-13T11:06:00.803Z,44.90
2022-11-13T11:08:33.890Z,48.40
2022-11-13T11:11:36.902Z,43.60
2022-11-13T11:14:38.567Z,44.70
2022-11-13T11:17:09.301Z,45.90
2022-11-13T11:19:39.019Z,42.90
2022-11-13T11:22:21.650Z,46.80
2022-11-13T11:25:20.743Z,42.90
2022-11-13T11:28:03.885Z,53.70
2022-11-13T11:30:44.190Z,49.80
2022-11-13T11:34:01.981Z,49.70
2022-11-13T11:36:40.651Z,59.00
2022-11-13T11:39:54.442Z,52.10
2022-11-13T11:42:37.922Z,55.40
2022-11-13T11:45:40.211Z,54.00
2022-11-13T11:48:16.591Z,64.60
2022-11-13T11:51:22.479Z,56.80
2022-11-13T11:54:24.937Z,53.90
2022-11-13T11:57:00.051Z,58.20
2022-11-13T11:59:58.727Z,57.40
2022-11-13T12:02:46.393Z,56.30
2022-11-13T12:05:56.281Z,66.70
2022-11-13T12:08:50.868Z,66.20
2022-11-13T12:12:07.204Z,67.50
2022-11-13T12:15:39.303Z,65.90
2022-11-13T12:18:46.651Z,66.80
2022-11-13T12:21:23.775Z,59.80
2022-11-13T12:24:45.856Z,61.40
2022-11-13T12:27:22.102Z,57.60
2022-11-13T12:30:19.709Z,69.80
2022-11-13T12:32:55.177Z,69.40
2022-11-13T12:35:26.047Z,69.50
2022-11-13T12:38:06.415Z,61.00
2022-11-13T12:40:59.916Z,79.90
2022-11-13T12:43:43.786Z,74.20
2022-11-13T12:46:13.233Z,76.00
2022-11-13T12:48:47.751Z,69.30
2022-11-13T12:51:18.506Z,62.90
2022-11-13T12:53:54.208Z,61.80
2022-11-13T12:56:26.439Z,69.80
2022-11-13T12:59:32.482Z,68.60
2022-11-13T13:02:06.889Z,67.10
2022-11-13T13:04:47.497Z,71.40
2022-11-13T13:07:51.279Z,58.50
2022-11-13T13:10:23.387Z,72.80
2022-11-13T13:13:00.569Z,63.70
2022-11-13T13:15:53.834Z,62.10
2022-11-13T13:18:34.561Z,63.70
2022-11-13T13:21:06.589Z,65.00
2022-11-13T13:23:41.805Z,66.50
2022-11-13T13:26:13.327Z,63.10
2022-11-13T13:28:48.064Z,67.60
2022-11-13T13:31:54.664Z,80.10
2022-11-13T13:37:54.452Z,65.80
2022-11-13T13:40:34.824Z,63.00
2022-11-13T13:43:47.435Z,61.40
2022-11-13T13:46:22.552Z,68.40
2022-11-13T13:48:57.115Z,63.50
2022-11-13T13:51:31.661Z,67.00
2022-11-13T13:54:05.270Z,65.00
2022-11-13T13:56:40.334Z,63.50
2022-11-13T13:59:37.118Z,58.50
2022-11-13T14:02:23.343Z,59.80
2022-11-13T14:04:54.874Z,59.60
2022-11-13T14:07:30.378Z,64.90
2022-11-13T14:10:20.753Z,63.80
2022-11-13T14:12:49.577Z,65.90
2022-11-13T14:15:29.803Z,64.10
2022-11-13T14:18:18.244Z,68.80
2022-11-13T14:20:56.689Z,61.30
2022-11-13T14:23:40.334Z,70.90
2022-11-13T14:26:13.219Z,58.50
2022-11-13T14:29:01.095Z,61.70
2022-11-13T14:31:34.053Z,58.20
2022-11-13T14:34:11.546Z,62.80
2022-11-13T14:36:41.027Z,60.40
2022-11-13T14:39:30.409Z,61.60
2022-11-13T14:42:01.292Z,63.40
2022-11-13T14:44:34.750Z,60.90
2022-11-13T14:47:21.734Z,66.80
2022-11-13T14:49:50.186Z,65.20
2022-11-13T14:52:25.576Z,66.60
2022-11-13T14:57:50.371Z,87.10
2022-11-13T15:00:27.832Z,144.00
2022-11-13T15:02:56.482Z,85.00
2022-11-13T15:05:25.507Z,78.20
2022-11-13T15:07:56.553Z,75.40
2022-11-13T15:10:28.257Z,93.30
2022-11-13T15:12:56.696Z,111.20
2022-11-13T15:15:30.420Z,85.40
2022-11-13T15:17:58.926Z,66.30
2022-11-13T15:20:29.227Z,105.40
2022-11-13T15:22:59.615Z,128.10
2022-11-13T15:25:27.994Z,116.20
2022-11-13T15:27:56.373Z,77.50
2022-11-13T15:30:24.681Z,75.30
2022-11-13T15:32:54.203Z,70.90
2022-11-13T15:35:22.762Z,64.90
2022-11-13T15:37:51.696Z,58.00
2022-11-13T15:40:20.247Z,67.80
2022-11-13T15:42:48.747Z,71.70
2022-11-13T15:45:17.422Z,60.90
2022-11-13T15:47:45.882Z,57.40
2022-11-13T15:50:15.919Z,71.40
2022-11-13T15:52:52.134Z,59.80
2022-11-13T15:55:29.591Z,60.60
2022-11-13T15:57:58.671Z,67.10
2022-11-13T16:00:29.000Z,107.20
2022-11-13T16:02:57.744Z,97.90
2022-11-13T16:05:29.266Z,101.10
2022-11-13T16:07:57.998Z,89.60
2022-11-13T16:10:26.391Z,72.20
2022-11-13T16:12:55.491Z,70.80
2022-11-13T16:15:24.160Z,66.20
2022-11-13T16:17:57.669Z,68.20
2022-11-13T16:20:26.075Z,61.30
2022-11-13T16:22:55.079Z,67.80
2022-11-13T16:25:23.567Z,95.10
2022-11-13T16:27:52.270Z,79.20
2022-11-13T16:30:23.390Z,80.40
2022-11-13T16:32:52.133Z,75.80
2022-11-13T16:35:21.169Z,68.20
2022-11-13T16:37:49.646Z,68.30
2022-11-13T16:40:25.961Z,63.50
2022-11-13T16:42:54.360Z,67.20
2022-11-13T16:45:23.267Z,80.40
2022-11-13T16:47:51.738Z,68.60
2022-11-13T16:50:28.031Z,72.00
2022-11-13T16:52:56.804Z,78.90
2022-11-13T16:55:25.386Z,73.10
2022-11-13T16:57:53.825Z,70.40
2022-11-13T17:00:22.443Z,70.90
2022-11-13T17:02:55.184Z,87.80
2022-11-13T17:05:24.187Z,74.90
2022-11-13T17:07:59.411Z,155.70
2022-11-13T17:10:32.606Z,101.20
2022-11-13T17:13:01.737Z,108.70
2022-11-13T17:15:31.321Z,104.00
2022-11-13T17:17:59.831Z,99.90
2022-11-13T17:20:28.219Z,114.00
2022-11-13T17:22:57.168Z,107.20
2022-11-13T17:25:27.983Z,85.80
2022-11-13T17:27:56.523Z,156.20
2022-11-13T17:30:24.905Z,194.80
2022-11-13T17:32:53.230Z,164.30
2022-11-13T17:35:21.624Z,148.00
2022-11-13T17:37:50.086Z,166.30
2022-11-13T17:40:19.471Z,139.60
2022-11-13T17:42:49.465Z,135.70
2022-11-13T17:45:17.876Z,107.20
2022-11-13T17:47:46.366Z,118.70
2022-11-13T17:50:15.460Z,107.00
2022-11-13T17:52:43.894Z,89.30
2022-11-13T17:55:13.991Z,87.60
2022-11-13T17:57:42.473Z,110.50
2022-11-13T18:00:11.620Z,88.50
2022-11-13T18:02:40.019Z,87.70
2022-11-13T18:05:10.067Z,93.40
2022-11-13T18:07:40.106Z,92.20
2022-11-13T18:10:10.987Z,68.90
2022-11-13T18:12:39.538Z,105.10
2022-11-13T18:15:08.218Z,91.80
2022-11-13T18:17:36.658Z,97.60
2022-11-13T18:20:05.677Z,84.80
2022-11-13T18:22:34.073Z,96.00
2022-11-13T18:25:03.333Z,96.50
2022-11-13T18:27:31.972Z,80.30
2022-11-13T18:30:00.420Z,124.30
2022-11-13T18:32:28.846Z,97.80
2022-11-13T18:34:57.194Z,102.70
2022-11-13T18:37:25.660Z,101.40
2022-11-13T18:39:54.112Z,138.60
2022-11-13T18:42:22.521Z,126.70
2022-11-13T18:44:51.129Z,120.90
2022-11-13T18:47:19.629Z,92.50
2022-11-13T18:49:48.553Z,97.20
2022-11-13T18:52:16.922Z,112.20
2022-11-13T18:54:45.282Z,103.20
2022-11-13T18:57:13.645Z,100.20
2022-11-13T18:59:41.972Z,100.80
2022-11-13T19:02:12.956Z,104.40
2022-11-13T19:04:41.444Z,105.80
2022-11-13T19:07:12.247Z,116.70
2022-11-13T19:09:45.059Z,91.90
2022-11-13T19:12:13.472Z,87.60
2022-11-13T19:14:41.823Z,86.00
2022-11-13T19:17:10.863Z,75.80
2022-11-13T19:19:41.775Z,72.90
2022-11-13T19:22:10.229Z,68.30
2022-11-13T19:24:38.656Z,83.40
2022-11-13T19:27:07.011Z,84.40
2022-11-13T19:29:35.342Z,80.30
2022-11-13T19:32:03.945Z,79.40
2022-11-13T19:34:32.364Z,76.10
2022-11-13T19:37:00.781Z,68.10
2022-11-13T19:39:29.145Z,77.40
2022-11-13T19:41:57.567Z,69.10
2022-11-13T19:44:26.083Z,71.30
2022-11-13T19:46:54.456Z,66.80
2022-11-13T19:49:22.896Z,63.80
2022-11-13T19:51:51.254Z,74.40
2022-11-13T19:54:19.665Z,72.20
2022-11-13T19:56:48.184Z,57.70
2022-11-13T19:59:16.652Z,58.80
2022-11-13T20:01:45.076Z,67.70
2022-11-13T20:04:13.818Z,55.20
2022-11-13T20:06:42.442Z,58.60
2022-11-13T20:09:11.025Z,71.00
2022-11-13T20:11:39.556Z,56.60
2022-11-13T20:14:12.137Z,61.30
2022-11-13T20:16:40.503Z,69.90
2022-11-13T20:19:08.919Z,68.00
2022-11-13T20:21:37.315Z,66.70
2022-11-13T20:24:06.014Z,70.40
2022-11-13T20:26:34.367Z,79.80
2022-11-13T20:29:02.889Z,85.70
2022-11-13T20:31:31.363Z,76.10
2022-11-13T20:33:59.819Z,85.50
2022-11-13T20:36:28.202Z,83.90
2022-11-13T20:38:57.830Z,98.60
2022-11-13T20:41:26.280Z,88.30
2022-11-13T20:44:01.843Z,107.90
2022-11-13T20:46:30.898Z,83.60
2022-11-13T20:48:59.627Z,100.60
2022-11-13T20:51:29.046Z,76.70
2022-11-13T20:53:57.667Z,80.20
2022-11-13T20:56:26.979Z,83.60
2022-11-13T20:58:55.695Z,75.40
2022-11-13T21:01:26.175Z,81.50
2022-11-13T21:03:56.063Z,84.60
2022-11-13T21:06:27.295Z,87.20
2022-11-13T21:08:56.524Z,90.70
2022-11-13T21:11:25.671Z,78.40
2022-11-13T21:13:55.503Z,101.90
2022-11-13T21:16:24.990Z,83.00
2022-11-13T21:18:59.014Z,80.00
2022-11-13T21:21:28.948Z,78.40
2022-11-13T21:23:59.211Z,63.50
2022-11-13T21:26:28.947Z,84.70
2022-11-13T21:28:57.858Z,96.20
2022-11-13T21:31:27.342Z,66.70
2022-11-13T21:33:57.618Z,65.70
2022-11-13T21:36:28.912Z,70.10
2022-11-13T21:38:57.412Z,60.60
2022-11-13T21:41:26.072Z,56.50
2022-11-13T21:44:00.455Z,62.10
2022-11-13T21:46:38.256Z,85.00
2022-11-13T21:49:10.153Z,82.80
2022-11-13T21:51:41.219Z,70.40
2022-11-13T21:54:10.044Z,71.60
2022-11-13T21:56:38.940Z,72.00
2022-11-13T21:59:07.581Z,64.90
2022-11-13T22:01:38.486Z,66.10
2022-11-13T22:04:07.365Z,57.00
2022-11-13T22:06:41.859Z,55.80
2022-11-13T22:09:19.790Z,65.10
2022-11-13T22:11:48.847Z,58.90
2022-11-13T22:14:17.362Z,74.20
2022-11-13T22:16:47.632Z,50.70
2022-11-13T22:19:23.822Z,77.90
2022-11-13T22:21:55.161Z,62.80
2022-11-13T22:24:23.556Z,61.50
2022-11-13T22:26:51.949Z,71.30
2022-11-13T22:29:20.299Z,67.10
2022-11-13T22:31:48.704Z,59.70
2022-11-13T22:34:18.298Z,62.40
2022-11-13T22:36:46.706Z,77.10
2022-11-13T22:39:15.152Z,71.20
2022-11-13T22:41:43.566Z,75.80
2022-11-13T22:44:13.907Z,76.20
2022-11-13T22:46:42.230Z,71.50
2022-11-13T22:49:11.885Z,64.10
2022-11-13T22:51:41.650Z,67.10
2022-11-13T22:54:12.512Z,71.20
2022-11-13T22:56:42.049Z,62.00
2022-11-13T22:59:12.277Z,64.10
2022-11-13T23:01:43.052Z,63.20
2022-11-13T23:04:13.759Z,67.40
2022-11-13T23:06:43.263Z,60.70
2022-11-13T23:09:11.587Z,65.60
2022-11-13T23:11:41.369Z,58.40
2022-11-13T23:14:15.864Z,52.70
2022-11-13T23:16:44.271Z,51.30
2022-11-13T23:19:13.034Z,48.30
2022-11-13T23:21:41.599Z,56.50
2022-11-13T23:24:10.507Z,47.20
2022-11-13T23:26:39.363Z,69.30
2022-11-13T23:29:07.731Z,49.90
2022-11-13T23:31:36.091Z,58.10
2022-11-13T23:34:04.452Z,54.90
2022-11-13T23:36:32.738Z,63.20
2022-11-13T23:39:01.194Z,64.70
2022-11-13T23:41:29.521Z,41.10
2022-11-13T23:44:13.064Z,58.40
2022-11-13T23:46:41.398Z,52.80
2022-11-13T23:49:09.669Z,48.00
2022-11-13T23:51:37.976Z,43.60
2022-11-13T23:54:06.334Z,54.40
2022-11-13T23:56:34.719Z,68.70
2022-11-13T23:59:03.071Z,59.70
